Tawau, Malaysia
Current Conditions -  °F | °C
As of 5:00 AM on Sunday 23 Nov 2014 (Local Time) from WBKW Reporting Station
Broken Clouds Broken Clouds  
Wind Chill: 73°   Ceiling: 30000
Heat Index: 73°   Visibility: 6mi
Dew Point: 72°   Wind: 5mph
Humidity: 94%   Direction: 330°NNW
Pressure: 29.77"   Gusts: NA
Location:  4.26°N, 117.88°E
Report Text: WBKW 222100Z 33004KT 9999 FEW017 BKN300 23/22 Q1008
Loading
Personal Weather Stations






























Interactive Weather Map New forecast layout! Learn more

10-Day Weather Forecast

Advertisements
Track Severe Weather on mobile